This is the latest recevied weather packets stored in our database for station/object KQ4LLM. If no packets are shown the sender has not sent any weather packets the latest 10 day(s).
| Time | Temp. | Humidity | Pressure | Rain* | Wind** | Luminosity | Snow |
|---|---|---|---|---|---|---|---|
| 1778094274 | 25.56° C | 67% | - | 0 mm | - | - | - |
| 1778093971 | 25° C | 67% | - | 0 mm | - | - | - |
| 1778093668 | 24.44° C | 69% | - | 0 mm | - | - | - |
| 1778093365 | 23.89° C | 69% | - | 0 mm | - | - | - |
| 1778093062 | 23.89° C | 69% | - | 0 mm | - | - | - |
| 1778092759 | 23.89° C | 70% | - | 0 mm | - | - | - |
| 1778092454 | 24.44° C | 68% | - | 0 mm | - | - | - |
| 1778092152 | 23.89° C | 71% | - | 0 mm | - | - | - |
| 1778091849 | 23.89° C | 72% | - | 0 mm | - | - | - |
| 1778091546 | 23.33° C | 73% | - | 0 mm | - | - | - |
| 1778091244 | 22.78° C | 74% | - | 0 mm | - | - | - |
| 1778090941 | 22.78° C | 74% | - | 0 mm | - | - | - |
| 1778090637 | 22.78° C | 73% | - | 0 mm | - | - | - |
| 1778090334 | 23.33° C | 74% | - | 0 mm | - | - | - |
| 1778090030 | 23.33° C | 74% | - | 0 mm | - | - | - |
| 1778089727 | 23.33° C | 76% | - | 0 mm | - | - | - |
| 1778089425 | 22.78° C | 76% | - | 0 mm | - | - | - |
| 1778089122 | 21.67° C | 78% | - | 0 mm | - | - | - |
| 1778088819 | 21.67° C | 79% | - | 0 mm | - | - | - |
| 1778088516 | 21.67° C | 80% | - | 0 mm | - | - | - |
| 1778088213 | 21.11° C | 80% | - | 0 mm | - | - | - |
| 1778087910 | 21.11° C | 79% | - | 0 mm | - | - | - |
| 1778087607 | 20.56° C | 82% | - | 0 mm | - | - | - |
| 1778087305 | 20.56° C | 80% | - | 0 mm | - | - | - |
| 1778087000 | 21.11° C | 79% | - | 0 mm | - | - | - |
* Rain latest hour (hover to see other rain measurements)
** Current wind speed in m/s (hover to see current wind gust speed)